Pagina principale
METAR-TAF:

METAR-TAF

Aeroporti :

Aeroporto di Reus

Reus, Spagna

latitudine: 41-09N, longitudine: 001-10E, altezza: 71 m

Osservazione

Il bollettino è stato emesso 27 minuti fa, alle 11:00 UTC
Vento 11 kt da est, variando fra est/nord-est e sud-est
Temperature 29°C
Umidità 35%
Pressione 1015 hPa
Visibilità 10 km o più
nessuna nube inferiore a 1500 m e nessun cumulonembo

METAR: LERS 241100Z 09011KT 060V140 CAVOK 29/12 Q1015

Ora: 13:27 (11:27 UTC)

Previsione

Il bollettino è stato emesso 3 ore e 27 minuti fa, alle 08:00 UTC
Previsione valida dal 24 alle 09 UTC al 25 alle 09 UTC
Vento 12 kt da est
Visibilità 10 km o più
nessuna nube inferiore a 1500 m e nessun cumulonembo
Evoluzione graduale
dal 24 alle 19 UTC al 24 alle 21 UTC
Vento 5 kt da nord-est

TAF: LERS 240800Z 2409/2509 10012KT CAVOK TX31/2412Z TN20/2505Z BECMG 2419/2421 04005KT

Osservazioni e previsioni meteorologiche di più di 4000 aeroporti (messaggi METAR e TAF).

Le stazioni disponibili sono rappresentate dai dischi gialli e rossi sulla carta.

Puntare il mouse per vedere il nome della stazione.

Clicca sopra per visualizzare le osservazioni e previsioni meteorologiche.

Per cambiare la mappa : fare clic sui pulsanti verdi con una croce nera per ingrandire, il pulsante verde con un trattino per diminuire, o sulla freccia verde per le mappe adiacenti.


METAR-TAF: